createdAt,value
2019-02-15T00:00:38.674Z,5.10
2019-02-15T00:05:42.083Z,5.30
2019-02-15T00:10:45.366Z,5.10
2019-02-15T00:15:48.649Z,5.70
2019-02-15T00:20:53.579Z,5.00
2019-02-15T00:25:56.882Z,5.50
2019-02-15T00:31:00.274Z,5.67
2019-02-15T00:36:03.609Z,5.47
2019-02-15T00:41:06.918Z,5.07
2019-02-15T00:46:20.861Z,6.40
2019-02-15T00:51:44.170Z,5.70
2019-02-15T00:56:54.928Z,8.40
2019-02-15T01:02:02.914Z,6.93
2019-02-15T01:07:07.896Z,7.13
2019-02-15T01:12:18.624Z,6.20
2019-02-15T01:17:22.005Z,5.20
2019-02-15T01:22:25.334Z,6.63
2019-02-15T01:27:30.293Z,7.10
2019-02-15T01:32:35.268Z,6.47
2019-02-15T01:42:59.384Z,7.00
2019-02-15T01:48:02.736Z,8.70
2019-02-15T01:53:06.154Z,7.50
2019-02-15T01:58:09.483Z,6.10
2019-02-15T02:03:12.867Z,6.87
2019-02-15T02:08:17.840Z,7.00
2019-02-15T02:13:21.186Z,6.20
2019-02-15T02:18:24.594Z,5.53
2019-02-15T02:23:27.908Z,7.03
2019-02-15T02:28:31.242Z,7.17
2019-02-15T02:33:34.582Z,6.33
2019-02-15T02:38:37.958Z,6.53
2019-02-15T02:43:41.305Z,6.40
2019-02-15T02:48:44.724Z,7.73
2019-02-15T02:53:48.027Z,5.30
2019-02-15T02:58:51.332Z,7.37
2019-02-15T03:03:54.664Z,7.43
2019-02-15T03:08:57.995Z,6.67
2019-02-15T03:14:11.088Z,6.10
2019-02-15T03:19:06.384Z,9.07
2019-02-15T03:24:09.737Z,7.97
2019-02-15T03:29:13.044Z,8.00
2019-02-15T03:34:16.428Z,6.07
2019-02-15T03:39:21.400Z,6.30
2019-02-15T03:44:24.735Z,8.43
2019-02-15T03:49:28.207Z,6.97
2019-02-15T03:54:31.538Z,7.37
2019-02-15T03:59:34.874Z,5.87
2019-02-15T04:04:38.197Z,9.43
2019-02-15T04:09:41.530Z,5.57
2019-02-15T04:14:44.878Z,5.83
2019-02-15T04:19:48.202Z,6.77
2019-02-15T04:24:51.509Z,6.20
2019-02-15T04:29:54.852Z,7.10
2019-02-15T04:34:58.185Z,4.87
2019-02-15T04:40:01.630Z,5.50
2019-02-15T04:45:06.701Z,6.73
2019-02-15T04:50:10.106Z,5.03
2019-02-15T04:55:13.441Z,3.90
2019-02-15T05:00:16.768Z,3.60
2019-02-15T05:05:20.126Z,5.70
2019-02-15T05:10:23.465Z,5.43
2019-02-15T05:15:26.780Z,4.30
2019-02-15T05:20:30.231Z,12.17
2019-02-15T05:25:33.611Z,10.67
2019-02-15T05:30:36.940Z,9.43
2019-02-15T05:35:40.273Z,8.60
2019-02-15T05:40:43.603Z,9.50
2019-02-15T05:45:46.976Z,5.77
2019-02-15T05:50:50.432Z,6.77
2019-02-15T05:55:53.771Z,7.37
2019-02-15T06:00:57.173Z,5.87
2019-02-15T06:06:00.484Z,7.37
2019-02-15T06:11:07.193Z,5.47
2019-02-15T06:16:08.909Z,6.10
2019-02-15T06:21:12.217Z,4.47
2019-02-15T06:26:15.632Z,6.80
2019-02-15T06:31:18.940Z,3.83
2019-02-15T06:36:22.343Z,5.77
2019-02-15T06:41:25.704Z,5.33
2019-02-15T06:46:29.009Z,4.40
2019-02-15T06:51:32.337Z,5.40
2019-02-15T06:56:35.668Z,4.83
2019-02-15T07:01:40.647Z,5.33
2019-02-15T07:06:43.981Z,6.90
2019-02-15T07:11:47.320Z,6.53
2019-02-15T07:16:50.744Z,6.30
2019-02-15T07:21:54.065Z,5.60
2019-02-15T07:26:57.476Z,6.37
2019-02-15T07:32:00.784Z,8.17
2019-02-15T07:37:04.116Z,7.30
2019-02-15T07:42:07.424Z,7.23
2019-02-15T07:47:10.816Z,6.47
2019-02-15T07:52:14.144Z,9.40
2019-02-15T07:57:17.584Z,8.80
2019-02-15T08:02:20.921Z,8.17
2019-02-15T08:07:49.482Z,7.57
2019-02-15T08:12:52.827Z,11.77
2019-02-15T08:17:56.190Z,8.47
2019-02-15T08:22:59.599Z,9.60
2019-02-15T08:28:02.914Z,9.70
2019-02-15T08:33:06.248Z,9.33
2019-02-15T08:38:09.631Z,9.87
2019-02-15T08:43:13.028Z,11.30
2019-02-15T08:48:16.369Z,10.70
2019-02-15T08:53:19.777Z,10.90
2019-02-15T08:58:23.157Z,12.90
2019-02-15T09:03:26.652Z,10.63
2019-02-15T09:08:30.205Z,8.03
2019-02-15T09:13:33.496Z,7.77
2019-02-15T09:18:36.833Z,8.07
2019-02-15T09:23:40.152Z,6.07
2019-02-15T09:28:45.117Z,5.87
2019-02-15T09:33:48.450Z,6.23
2019-02-15T09:38:51.881Z,4.47
2019-02-15T09:43:55.316Z,5.10
2019-02-15T09:48:58.642Z,4.50
2019-02-15T09:54:02.024Z,3.83
2019-02-15T09:59:05.398Z,6.33
2019-02-15T10:04:08.756Z,5.17
2019-02-15T10:09:12.122Z,4.43
2019-02-15T10:14:15.469Z,5.40
2019-02-15T10:19:22.452Z,3.80
2019-02-15T10:24:23.925Z,5.00
2019-02-15T10:29:27.283Z,4.00
2019-02-15T10:34:30.757Z,8.53
2019-02-15T10:39:34.083Z,4.50
2019-02-15T10:44:37.403Z,3.60
2019-02-15T10:49:40.714Z,5.40
2019-02-15T10:54:44.067Z,5.73
2019-02-15T10:59:47.427Z,4.80
2019-02-15T11:04:50.839Z,4.27
2019-02-15T11:09:54.303Z,5.43
2019-02-15T11:14:57.647Z,4.63
2019-02-15T11:20:01.045Z,5.10
2019-02-15T11:25:06.222Z,4.33
2019-02-15T11:30:12.265Z,3.23
2019-02-15T11:35:15.574Z,6.80
2019-02-15T11:40:18.921Z,5.73
2019-02-15T11:45:22.285Z,4.17
2019-02-15T11:50:25.633Z,5.07
2019-02-15T11:55:29.013Z,5.50
2019-02-15T12:00:33.980Z,4.77
2019-02-15T12:05:37.369Z,4.20
2019-02-15T12:10:40.696Z,5.57
2019-02-15T12:15:44.032Z,6.50
2019-02-15T12:20:47.363Z,4.50
2019-02-15T12:25:50.680Z,7.90
2019-02-15T12:30:54.086Z,4.17
2019-02-15T12:35:57.413Z,6.53
2019-02-15T12:41:00.817Z,6.10
2019-02-15T12:46:04.212Z,4.40
2019-02-15T12:51:07.561Z,5.90
2019-02-15T12:56:10.874Z,5.50
2019-02-15T13:01:14.270Z,5.77
2019-02-15T13:06:17.595Z,6.37
2019-02-15T13:11:20.918Z,6.23
2019-02-15T13:16:24.292Z,6.90
2019-02-15T13:21:28.492Z,6.03
2019-02-15T13:26:31.806Z,7.03
2019-02-15T13:31:35.136Z,4.90
2019-02-15T13:36:38.452Z,5.10
2019-02-15T13:41:41.801Z,6.07
2019-02-15T13:46:45.137Z,7.30
2019-02-15T13:51:48.546Z,7.20
2019-02-15T13:56:51.885Z,8.60
2019-02-15T14:01:55.223Z,8.13
2019-02-15T14:06:58.560Z,6.73
2019-02-15T14:12:03.026Z,7.30
2019-02-15T14:17:06.509Z,8.90
2019-02-15T14:22:09.823Z,6.47
2019-02-15T14:27:13.134Z,6.87
2019-02-15T14:32:16.461Z,6.40
2019-02-15T14:37:19.782Z,8.10
2019-02-15T14:42:23.118Z,6.73
2019-02-15T14:47:26.469Z,7.10
2019-02-15T14:52:29.870Z,8.63
2019-02-15T14:57:33.177Z,8.30
2019-02-15T15:02:36.495Z,8.40
2019-02-15T15:07:39.824Z,7.80
2019-02-15T15:12:43.240Z,8.90
2019-02-15T15:17:46.618Z,7.40
2019-02-15T15:22:49.946Z,8.53
2019-02-15T15:27:53.281Z,8.00
2019-02-15T15:32:56.614Z,7.10
2019-02-15T15:38:00.019Z,7.33
2019-02-15T15:43:03.425Z,8.97
2019-02-15T15:48:06.709Z,9.43
2019-02-15T15:53:09.991Z,9.27
2019-02-15T15:58:13.286Z,8.37
2019-02-15T16:03:16.626Z,6.70
2019-02-15T16:08:19.889Z,7.10
2019-02-15T16:13:23.192Z,6.87
2019-02-15T16:18:33.145Z,7.70
2019-02-15T16:23:31.457Z,6.27
2019-02-15T16:28:34.870Z,6.97
2019-02-15T16:33:38.165Z,8.33
2019-02-15T16:38:41.437Z,9.47
2019-02-15T16:43:44.726Z,7.77
2019-02-15T16:48:48.051Z,7.97
2019-02-15T16:53:51.347Z,8.43
2019-02-15T16:58:54.639Z,6.23
2019-02-15T17:03:57.911Z,8.43
2019-02-15T17:09:01.369Z,8.23
2019-02-15T17:14:04.645Z,7.33
2019-02-15T17:19:07.961Z,8.30
2019-02-15T17:24:11.256Z,10.53
2019-02-15T17:29:14.573Z,7.20
2019-02-15T17:34:17.940Z,7.63
2019-02-15T17:39:21.237Z,7.63
2019-02-15T17:44:24.529Z,9.20
2019-02-15T17:49:27.824Z,8.80
2019-02-15T17:54:31.143Z,7.77
2019-02-15T17:59:34.426Z,7.37
2019-02-15T18:04:37.774Z,8.27
2019-02-15T18:09:41.076Z,8.23
2019-02-15T18:14:44.364Z,6.57
2019-02-15T18:19:47.652Z,9.17
2019-02-15T18:24:50.937Z,7.83
2019-02-15T18:29:54.252Z,10.87
2019-02-15T18:34:57.541Z,8.67
2019-02-15T18:40:00.829Z,8.77
2019-02-15T18:45:05.637Z,8.90
2019-02-15T18:50:09.962Z,10.07
2019-02-15T18:55:13.269Z,12.47
2019-02-15T19:00:17.079Z,9.47
2019-02-15T19:05:20.368Z,7.80
2019-02-15T19:10:24.308Z,9.63
2019-02-15T19:15:27.887Z,11.63
2019-02-15T19:20:31.175Z,9.20
2019-02-15T19:25:34.455Z,13.03
2019-02-15T19:30:37.829Z,11.97
2019-02-15T19:35:41.109Z,10.97
2019-02-15T19:40:44.436Z,12.10
2019-02-15T19:45:49.079Z,11.00
2019-02-15T19:50:52.358Z,9.73
2019-02-15T19:55:55.635Z,9.97
2019-02-15T20:00:58.926Z,11.70
2019-02-15T20:06:02.229Z,8.20
2019-02-15T20:11:05.746Z,10.57
2019-02-15T20:16:09.063Z,12.10
2019-02-15T20:21:12.397Z,9.70
2019-02-15T20:26:15.688Z,11.70
2019-02-15T20:31:19.230Z,13.37
2019-02-15T20:36:22.603Z,11.97
2019-02-15T20:41:26.053Z,12.20
2019-02-15T20:46:29.352Z,14.13
2019-02-15T20:51:32.649Z,12.77
2019-02-15T20:56:36.019Z,11.43
2019-02-15T21:01:39.344Z,11.90
2019-02-15T21:06:42.648Z,15.17
2019-02-15T21:11:45.955Z,13.10
2019-02-15T21:16:49.244Z,15.00
2019-02-15T21:21:52.541Z,12.93
2019-02-15T21:26:55.826Z,12.10
2019-02-15T21:31:59.154Z,13.57
2019-02-15T21:37:02.431Z,14.03
2019-02-15T21:42:05.727Z,12.33
2019-02-15T21:47:09.016Z,12.53
2019-02-15T21:52:12.313Z,12.87
2019-02-15T21:57:15.605Z,12.77
2019-02-15T22:02:18.878Z,13.43
2019-02-15T22:07:22.675Z,12.73
2019-02-15T22:12:25.955Z,14.87
2019-02-15T22:17:29.245Z,14.73
2019-02-15T22:22:32.518Z,14.23
2019-02-15T22:27:35.820Z,11.80
2019-02-15T22:32:39.122Z,10.80
2019-02-15T22:37:42.397Z,12.07
2019-02-15T22:42:45.673Z,10.37
2019-02-15T22:47:48.975Z,12.60
2019-02-15T22:52:52.339Z,12.97
2019-02-15T22:57:55.560Z,13.33
2019-02-15T23:02:58.837Z,10.63
2019-02-15T23:08:02.137Z,11.60
2019-02-15T23:13:05.432Z,13.20
2019-02-15T23:18:08.749Z,11.60
2019-02-15T23:23:12.077Z,12.53
2019-02-15T23:28:15.378Z,11.10
2019-02-15T23:33:18.690Z,11.57
2019-02-15T23:38:21.955Z,8.50
2019-02-15T23:43:25.247Z,11.40
2019-02-15T23:48:28.543Z,7.67
2019-02-15T23:53:31.832Z,12.10
2019-02-15T23:58:35.174Z,11.07
